createdAt,value
2017-06-27T00:00:17.780Z,1.87
2017-06-27T00:02:45.337Z,2.00
2017-06-27T00:05:12.865Z,2.17
2017-06-27T00:07:40.486Z,1.60
2017-06-27T00:10:08.009Z,2.47
2017-06-27T00:12:35.571Z,2.10
2017-06-27T00:15:03.118Z,2.30
2017-06-27T00:17:30.784Z,2.60
2017-06-27T00:19:58.334Z,2.37
2017-06-27T00:22:25.873Z,2.50
2017-06-27T00:24:53.441Z,2.20
2017-06-27T00:27:21.495Z,2.20
2017-06-27T00:29:49.073Z,2.50
2017-06-27T00:32:16.631Z,2.10
2017-06-27T00:34:44.171Z,2.43
2017-06-27T00:37:11.731Z,1.93
2017-06-27T00:39:39.295Z,2.13
2017-06-27T00:42:06.828Z,2.10
2017-06-27T00:44:34.352Z,2.20
2017-06-27T00:47:01.891Z,2.20
2017-06-27T00:49:29.432Z,2.13
2017-06-27T00:51:56.988Z,2.13
2017-06-27T00:54:24.521Z,2.00
2017-06-27T00:56:52.425Z,2.03
2017-06-27T00:59:19.949Z,2.20
2017-06-27T01:01:47.506Z,1.87
2017-06-27T01:04:15.016Z,1.90
2017-06-27T01:06:42.550Z,1.93
2017-06-27T01:09:10.062Z,2.27
2017-06-27T01:11:37.653Z,1.90
2017-06-27T01:14:05.185Z,1.80
2017-06-27T01:16:32.794Z,2.20
2017-06-27T01:19:00.361Z,2.03
2017-06-27T01:21:27.913Z,1.83
2017-06-27T01:23:55.452Z,1.70
2017-06-27T01:26:22.973Z,1.90
2017-06-27T01:28:50.539Z,1.80
2017-06-27T01:31:18.128Z,2.03
2017-06-27T01:33:45.704Z,2.37
2017-06-27T01:36:13.246Z,2.30
2017-06-27T01:38:40.773Z,1.90
2017-06-27T01:41:08.344Z,1.60
2017-06-27T01:43:35.873Z,1.87
2017-06-27T01:46:03.421Z,1.80
2017-06-27T01:48:30.945Z,1.80
2017-06-27T01:50:58.551Z,2.00
2017-06-27T01:53:26.081Z,2.13
2017-06-27T01:55:54.386Z,1.83
2017-06-27T01:58:21.937Z,1.93
2017-06-27T02:00:49.495Z,1.70
2017-06-27T02:03:17.024Z,1.93
2017-06-27T02:05:44.549Z,1.70
2017-06-27T02:08:12.112Z,2.10
2017-06-27T02:10:39.637Z,2.10
2017-06-27T02:13:07.180Z,1.30
2017-06-27T02:15:34.741Z,1.90
2017-06-27T02:18:02.311Z,1.77
2017-06-27T02:20:29.860Z,1.97
2017-06-27T02:22:57.405Z,1.70
2017-06-27T02:25:24.948Z,1.50
2017-06-27T02:27:52.490Z,1.47
2017-06-27T02:30:20.013Z,2.27
2017-06-27T02:32:47.590Z,2.00
2017-06-27T02:35:15.158Z,1.93
2017-06-27T02:37:42.703Z,1.87
2017-06-27T02:40:10.284Z,1.80
2017-06-27T02:42:37.797Z,1.80
2017-06-27T02:45:05.365Z,1.60
2017-06-27T02:47:32.913Z,1.70
2017-06-27T02:50:00.481Z,2.00
2017-06-27T02:52:28.010Z,1.77
2017-06-27T02:54:55.572Z,1.90
2017-06-27T02:57:23.148Z,2.17
2017-06-27T02:59:50.733Z,1.80
2017-06-27T03:02:18.287Z,1.87
2017-06-27T03:04:45.857Z,1.40
2017-06-27T03:07:13.383Z,1.50
2017-06-27T03:09:40.942Z,2.10
2017-06-27T03:12:08.497Z,1.50
2017-06-27T03:14:36.037Z,1.67
2017-06-27T03:17:03.550Z,1.93
2017-06-27T03:19:31.085Z,2.00
2017-06-27T03:21:58.613Z,1.90
2017-06-27T03:24:26.142Z,2.30
2017-06-27T03:26:53.703Z,1.77
2017-06-27T03:29:21.236Z,1.73
2017-06-27T03:31:48.796Z,2.20
2017-06-27T03:34:16.326Z,1.90
2017-06-27T03:36:43.857Z,1.93
2017-06-27T03:39:11.399Z,1.77
2017-06-27T03:41:38.984Z,1.80
2017-06-27T03:44:06.502Z,1.83
2017-06-27T03:46:34.066Z,2.00
2017-06-27T03:49:01.592Z,2.17
2017-06-27T03:51:29.140Z,1.90
2017-06-27T03:53:56.675Z,1.83
2017-06-27T03:56:25.020Z,2.10
2017-06-27T03:58:52.552Z,1.90
2017-06-27T04:01:20.129Z,1.90
2017-06-27T04:03:47.695Z,1.67
2017-06-27T04:06:15.269Z,1.77
2017-06-27T04:08:43.404Z,1.83
2017-06-27T04:11:10.936Z,2.27
2017-06-27T04:13:38.497Z,2.10
2017-06-27T04:16:06.124Z,1.87
2017-06-27T04:18:33.682Z,2.20
2017-06-27T04:21:01.205Z,1.80
2017-06-27T04:23:28.808Z,2.50
2017-06-27T04:25:56.343Z,2.20
2017-06-27T04:28:23.920Z,2.50
2017-06-27T04:30:51.583Z,2.20
2017-06-27T04:33:19.109Z,2.10
2017-06-27T04:35:46.671Z,2.20
2017-06-27T04:38:14.204Z,2.50
2017-06-27T04:40:42.523Z,2.00
2017-06-27T04:43:10.065Z,1.93
2017-06-27T04:45:37.609Z,2.17
2017-06-27T04:48:05.153Z,1.90
2017-06-27T04:50:32.728Z,2.10
2017-06-27T04:53:00.266Z,2.00
2017-06-27T04:55:27.836Z,1.80
2017-06-27T04:57:55.402Z,2.00
2017-06-27T05:00:22.951Z,2.13
2017-06-27T05:02:50.477Z,2.00
2017-06-27T05:05:18.065Z,2.13
2017-06-27T05:07:45.587Z,2.10
2017-06-27T05:10:13.122Z,1.90
2017-06-27T05:12:40.709Z,1.93
2017-06-27T05:15:08.235Z,1.90
2017-06-27T05:17:35.781Z,2.00
2017-06-27T05:20:03.305Z,1.90
2017-06-27T05:22:30.861Z,1.80
2017-06-27T05:24:58.388Z,1.70
2017-06-27T05:27:25.965Z,1.80
2017-06-27T05:29:53.524Z,1.70
2017-06-27T05:32:21.087Z,2.00
2017-06-27T05:34:48.633Z,1.80
2017-06-27T05:37:16.212Z,1.83
2017-06-27T05:39:43.750Z,1.47
2017-06-27T05:42:11.280Z,1.53
2017-06-27T05:44:38.864Z,1.60
2017-06-27T05:47:06.393Z,1.67
2017-06-27T05:49:33.938Z,2.00
2017-06-27T05:52:01.473Z,1.70
2017-06-27T05:54:29.006Z,1.77
2017-06-27T05:56:56.669Z,1.80
2017-06-27T05:59:24.253Z,1.93
2017-06-27T06:01:51.823Z,1.87
2017-06-27T06:04:19.376Z,1.67
2017-06-27T06:06:46.933Z,1.77
2017-06-27T06:09:14.448Z,2.10
2017-06-27T06:11:41.993Z,2.07
2017-06-27T06:14:09.509Z,1.80
2017-06-27T06:16:37.062Z,1.70
2017-06-27T06:19:04.621Z,1.77
2017-06-27T06:21:32.159Z,1.70
2017-06-27T06:23:59.721Z,1.63
2017-06-27T06:26:27.278Z,1.70
2017-06-27T06:28:54.818Z,1.60
2017-06-27T06:31:22.395Z,1.63
2017-06-27T06:33:49.946Z,1.60
2017-06-27T06:36:17.473Z,1.73
2017-06-27T06:38:45.804Z,1.90
2017-06-27T06:41:13.329Z,2.23
2017-06-27T06:43:40.885Z,2.07
2017-06-27T06:46:08.417Z,1.97
2017-06-27T06:48:35.974Z,1.77
2017-06-27T06:51:03.518Z,1.90
2017-06-27T06:53:31.064Z,1.80
2017-06-27T06:55:58.589Z,2.03
2017-06-27T06:58:26.163Z,2.23
2017-06-27T07:00:53.686Z,1.70
2017-06-27T07:03:21.988Z,1.70
2017-06-27T07:05:49.528Z,2.03
2017-06-27T07:08:17.052Z,2.10
2017-06-27T07:10:44.596Z,1.97
2017-06-27T07:13:12.129Z,2.17
2017-06-27T07:15:39.674Z,2.13
2017-06-27T07:18:07.204Z,1.60
2017-06-27T07:20:34.773Z,1.93
2017-06-27T07:23:02.310Z,2.00
2017-06-27T07:25:29.829Z,2.33
2017-06-27T07:27:57.365Z,2.03
2017-06-27T07:30:24.885Z,1.60
2017-06-27T07:32:53.225Z,1.93
2017-06-27T07:35:20.753Z,1.80
2017-06-27T07:37:48.305Z,1.77
2017-06-27T07:40:15.834Z,1.77
2017-06-27T07:42:43.366Z,1.90
2017-06-27T07:45:10.908Z,1.70
2017-06-27T07:47:38.490Z,2.03
2017-06-27T07:50:06.017Z,2.20
2017-06-27T07:52:33.548Z,1.97
2017-06-27T07:55:01.110Z,1.87
2017-06-27T07:57:28.639Z,2.00
2017-06-27T07:59:56.179Z,1.60
2017-06-27T08:02:23.723Z,1.70
2017-06-27T08:04:51.273Z,2.27
2017-06-27T08:07:18.806Z,1.80
2017-06-27T08:09:47.122Z,2.57
2017-06-27T08:12:14.672Z,2.10
2017-06-27T08:14:42.225Z,2.20
2017-06-27T08:17:09.744Z,2.40
2017-06-27T08:19:37.293Z,2.77
2017-06-27T08:22:04.865Z,2.20
2017-06-27T08:24:32.450Z,2.40
2017-06-27T08:26:59.985Z,2.27
2017-06-27T08:29:27.528Z,2.50
2017-06-27T08:31:55.080Z,2.60
2017-06-27T08:34:22.609Z,2.97
2017-06-27T08:36:50.145Z,2.83
2017-06-27T08:39:18.436Z,2.80
2017-06-27T08:41:45.984Z,2.60
2017-06-27T08:44:13.516Z,3.10
2017-06-27T08:46:41.072Z,2.90
2017-06-27T08:49:08.595Z,2.53
2017-06-27T08:51:36.174Z,2.47
2017-06-27T08:54:03.701Z,2.47
2017-06-27T08:56:31.226Z,2.50
2017-06-27T08:58:58.773Z,2.90
2017-06-27T09:01:26.294Z,2.67
2017-06-27T09:03:53.854Z,2.00
2017-06-27T09:06:21.516Z,2.60
2017-06-27T09:08:49.059Z,2.50
2017-06-27T09:11:16.581Z,2.83
2017-06-27T09:13:44.126Z,2.63
2017-06-27T09:16:11.690Z,2.87
2017-06-27T09:18:39.233Z,2.60
2017-06-27T09:21:06.754Z,2.40
2017-06-27T09:23:34.301Z,2.83
2017-06-27T09:26:01.871Z,2.57
2017-06-27T09:28:29.421Z,2.80
2017-06-27T09:30:56.984Z,2.27
2017-06-27T09:33:24.521Z,2.43
2017-06-27T09:35:52.831Z,2.07
2017-06-27T09:38:20.363Z,2.30
2017-06-27T09:40:47.901Z,2.50
2017-06-27T09:43:16.227Z,2.50
2017-06-27T09:45:43.797Z,2.50
2017-06-27T09:48:11.321Z,2.27
2017-06-27T09:50:38.885Z,2.40
2017-06-27T09:53:06.438Z,2.80
2017-06-27T09:55:33.976Z,1.97
2017-06-27T09:58:01.530Z,2.40
2017-06-27T10:00:29.068Z,1.93
2017-06-27T10:02:56.600Z,2.03
2017-06-27T10:05:24.138Z,2.37
2017-06-27T10:07:51.681Z,2.00
2017-06-27T10:10:19.207Z,2.30
2017-06-27T10:12:46.780Z,1.90
2017-06-27T10:15:14.326Z,2.23
2017-06-27T10:17:41.901Z,1.90
2017-06-27T10:20:09.453Z,1.80
2017-06-27T10:22:36.992Z,2.07
2017-06-27T10:25:04.552Z,1.93
2017-06-27T10:27:32.104Z,1.70
2017-06-27T10:29:59.658Z,2.00
2017-06-27T10:32:27.181Z,1.80
2017-06-27T10:34:54.725Z,1.80
2017-06-27T10:37:22.256Z,2.00
2017-06-27T10:39:49.801Z,2.10
2017-06-27T10:42:17.326Z,1.83
2017-06-27T10:44:44.914Z,1.80
2017-06-27T10:47:12.452Z,1.60
2017-06-27T10:49:39.977Z,1.83
2017-06-27T10:52:07.526Z,1.57
2017-06-27T10:54:35.053Z,1.67
2017-06-27T10:57:02.601Z,2.03
2017-06-27T10:59:30.191Z,2.10
2017-06-27T11:01:57.742Z,1.73
2017-06-27T11:04:25.297Z,1.60
2017-06-27T11:06:52.856Z,1.50
2017-06-27T11:09:20.381Z,2.10
2017-06-27T11:11:47.898Z,1.50
2017-06-27T11:14:15.452Z,2.03
2017-06-27T11:16:42.970Z,1.57
2017-06-27T11:19:10.529Z,1.43
2017-06-27T11:21:38.065Z,1.43
2017-06-27T11:24:05.629Z,1.67
2017-06-27T11:26:33.971Z,1.80
2017-06-27T11:29:01.559Z,1.60
2017-06-27T11:31:29.099Z,1.80
2017-06-27T11:33:56.641Z,1.30
2017-06-27T11:36:24.185Z,1.40
2017-06-27T11:38:51.707Z,1.43
2017-06-27T11:41:19.259Z,1.20
2017-06-27T11:43:47.582Z,1.20
2017-06-27T11:46:15.127Z,1.53
2017-06-27T11:48:42.666Z,1.27
2017-06-27T11:51:10.241Z,1.20
2017-06-27T11:53:37.769Z,1.30
2017-06-27T11:56:05.337Z,1.47
2017-06-27T11:58:32.886Z,1.30
2017-06-27T12:01:22.820Z,1.40
2017-06-27T12:04:02.021Z,1.20
2017-06-27T12:06:34.393Z,1.20
2017-06-27T12:09:01.917Z,1.00
2017-06-27T12:11:29.479Z,1.10
2017-06-27T12:13:57.031Z,1.20
2017-06-27T12:16:24.593Z,1.03
2017-06-27T12:18:52.149Z,1.10
2017-06-27T12:21:19.665Z,1.10
2017-06-27T12:23:47.210Z,1.10
2017-06-27T12:26:14.761Z,1.43
2017-06-27T12:28:42.922Z,1.27
2017-06-27T12:31:10.469Z,1.50
2017-06-27T12:33:38.055Z,1.00
2017-06-27T12:36:05.607Z,1.30
2017-06-27T12:38:33.212Z,1.00
2017-06-27T12:41:00.741Z,1.00
2017-06-27T12:43:28.300Z,1.20
2017-06-27T12:45:55.857Z,1.00
2017-06-27T12:48:24.463Z,1.20
2017-06-27T12:50:52.047Z,1.07
2017-06-27T12:53:19.573Z,1.20
2017-06-27T12:55:47.137Z,1.40
2017-06-27T12:58:14.674Z,1.50
2017-06-27T13:00:42.217Z,1.10
2017-06-27T13:03:09.748Z,1.13
2017-06-27T13:05:37.302Z,1.03
2017-06-27T13:08:04.839Z,1.30
2017-06-27T13:10:32.401Z,1.17
2017-06-27T13:12:59.926Z,1.00
2017-06-27T13:15:27.471Z,1.10
2017-06-27T13:17:55.022Z,1.33
2017-06-27T13:20:22.545Z,1.00
2017-06-27T13:22:50.124Z,1.33
2017-06-27T13:25:17.673Z,1.20
2017-06-27T13:27:45.248Z,1.00
2017-06-27T13:30:12.775Z,1.03
2017-06-27T13:32:40.325Z,1.00
2017-06-27T13:35:07.850Z,1.23
2017-06-27T13:37:35.406Z,1.20
2017-06-27T13:40:02.932Z,1.20
2017-06-27T13:42:30.573Z,1.23
2017-06-27T13:44:58.138Z,1.20
2017-06-27T13:47:25.680Z,1.10
2017-06-27T13:49:53.217Z,1.23
2017-06-27T13:52:20.742Z,1.47
2017-06-27T13:54:48.302Z,1.00
2017-06-27T13:57:15.839Z,1.60
2017-06-27T13:59:43.396Z,1.07
2017-06-27T14:02:10.960Z,1.20
2017-06-27T14:04:38.498Z,1.10
2017-06-27T14:07:06.067Z,1.30
2017-06-27T14:09:33.626Z,1.20
2017-06-27T14:12:01.193Z,1.10
2017-06-27T14:14:28.721Z,1.43
2017-06-27T14:16:56.284Z,1.40
2017-06-27T14:19:23.813Z,1.37
2017-06-27T14:21:51.387Z,1.30
2017-06-27T14:24:18.946Z,1.30
2017-06-27T14:26:47.243Z,1.33
2017-06-27T14:29:14.797Z,1.10
2017-06-27T14:31:42.361Z,1.60
2017-06-27T14:34:09.934Z,1.40
2017-06-27T14:36:37.461Z,1.47
2017-06-27T14:39:05.770Z,1.20
2017-06-27T14:41:33.289Z,1.40
2017-06-27T14:44:00.865Z,1.30
2017-06-27T14:46:29.166Z,1.23
2017-06-27T14:48:56.759Z,1.70
2017-06-27T14:51:24.303Z,1.33
2017-06-27T14:53:51.851Z,1.50
2017-06-27T14:56:19.420Z,1.10
2017-06-27T14:58:46.948Z,1.30
2017-06-27T15:01:14.489Z,1.10
2017-06-27T15:03:42.043Z,1.27
2017-06-27T15:06:09.607Z,1.20
2017-06-27T15:08:37.165Z,1.37
2017-06-27T15:11:05.493Z,1.30
2017-06-27T15:13:33.055Z,1.30
2017-06-27T15:16:00.617Z,1.30
2017-06-27T15:18:28.137Z,1.30
2017-06-27T15:20:55.696Z,1.20
2017-06-27T15:23:23.225Z,1.20
2017-06-27T15:25:50.781Z,1.27
2017-06-27T15:28:18.312Z,1.60
2017-06-27T15:30:45.873Z,1.63
2017-06-27T15:33:13.423Z,1.53
2017-06-27T15:35:40.961Z,1.40
2017-06-27T15:38:08.513Z,1.20
2017-06-27T15:40:36.049Z,1.50
2017-06-27T15:43:03.589Z,1.40
2017-06-27T15:45:31.144Z,1.10
2017-06-27T15:47:58.713Z,1.33
2017-06-27T15:50:26.242Z,1.40
2017-06-27T15:52:53.818Z,1.20
2017-06-27T15:55:21.357Z,1.20
2017-06-27T15:57:49.016Z,1.17
2017-06-27T16:00:16.543Z,1.23
2017-06-27T16:02:44.125Z,1.23
2017-06-27T16:05:11.649Z,1.77
2017-06-27T16:07:39.980Z,1.37
2017-06-27T16:10:07.564Z,1.27
2017-06-27T16:12:35.101Z,1.17
2017-06-27T16:15:02.661Z,1.57
2017-06-27T16:17:30.203Z,2.00
2017-06-27T16:19:57.769Z,1.30
2017-06-27T16:22:25.326Z,1.30
2017-06-27T16:24:52.908Z,1.30
2017-06-27T16:27:20.433Z,1.37
2017-06-27T16:29:47.994Z,1.40
2017-06-27T16:32:15.522Z,1.27
2017-06-27T16:34:43.053Z,1.03
2017-06-27T16:37:10.617Z,1.30
2017-06-27T16:39:38.141Z,1.10
2017-06-27T16:42:05.685Z,1.30
2017-06-27T16:44:33.205Z,1.10
2017-06-27T16:47:00.742Z,1.50
2017-06-27T16:49:28.282Z,1.37
2017-06-27T16:51:55.825Z,1.30
2017-06-27T16:54:23.361Z,1.10
2017-06-27T16:56:51.688Z,1.10
2017-06-27T16:59:19.197Z,1.40
2017-06-27T17:01:46.742Z,1.40
2017-06-27T17:04:14.286Z,1.20
2017-06-27T17:06:41.858Z,1.50
2017-06-27T17:09:09.381Z,1.30
2017-06-27T17:11:36.909Z,1.30
2017-06-27T17:14:04.464Z,1.20
2017-06-27T17:16:32.002Z,1.30
2017-06-27T17:19:00.315Z,1.30
2017-06-27T17:21:27.840Z,1.43
2017-06-27T17:23:55.388Z,1.30
2017-06-27T17:26:23.122Z,1.60
2017-06-27T17:28:50.661Z,1.27
2017-06-27T17:31:18.185Z,1.10
2017-06-27T17:33:46.496Z,1.50
2017-06-27T17:36:14.026Z,1.30
2017-06-27T17:38:41.570Z,1.17
2017-06-27T17:41:09.089Z,1.30
2017-06-27T17:43:36.660Z,1.40
2017-06-27T17:46:04.245Z,1.60
2017-06-27T17:48:31.844Z,1.47
2017-06-27T17:50:59.394Z,1.37
2017-06-27T17:53:27.712Z,1.77
2017-06-27T17:55:55.263Z,1.67
2017-06-27T17:58:22.789Z,1.90
2017-06-27T18:00:51.125Z,1.90
2017-06-27T18:03:18.645Z,2.37
2017-06-27T18:05:46.189Z,2.13
2017-06-27T18:08:13.722Z,2.00
2017-06-27T18:10:43.161Z,2.37
2017-06-27T18:13:10.709Z,2.30
2017-06-27T18:15:38.289Z,2.23
2017-06-27T18:18:05.860Z,2.60
2017-06-27T18:20:33.548Z,2.40
2017-06-27T18:23:01.168Z,2.60
2017-06-27T18:25:28.716Z,2.53
2017-06-27T18:27:56.267Z,2.90
2017-06-27T18:30:24.756Z,3.17
2017-06-27T18:32:52.292Z,3.20
2017-06-27T18:35:19.922Z,2.77
2017-06-27T18:37:47.553Z,3.13
2017-06-27T18:40:15.101Z,2.80
2017-06-27T18:42:42.664Z,2.87
2017-06-27T18:45:10.249Z,2.70
2017-06-27T18:47:37.901Z,2.33
2017-06-27T18:50:05.444Z,2.70
2017-06-27T18:52:33.000Z,2.77
2017-06-27T18:55:00.540Z,3.07
2017-06-27T18:57:28.133Z,2.50
2017-06-27T18:59:55.685Z,2.60
2017-06-27T19:02:23.267Z,2.73
2017-06-27T19:04:50.814Z,3.10
2017-06-27T19:07:18.430Z,2.90
2017-06-27T19:09:45.953Z,2.43
2017-06-27T19:12:13.501Z,2.63
2017-06-27T19:14:41.021Z,2.40
2017-06-27T19:17:08.629Z,2.03
2017-06-27T19:19:36.174Z,2.50
2017-06-27T19:22:03.749Z,2.50
2017-06-27T19:24:31.307Z,2.80
2017-06-27T19:26:58.834Z,2.30
2017-06-27T19:29:26.411Z,2.60
2017-06-27T19:31:53.946Z,2.20
2017-06-27T19:34:21.497Z,2.57
2017-06-27T19:36:49.071Z,2.30
2017-06-27T19:39:16.637Z,2.40
2017-06-27T19:41:44.207Z,2.30
2017-06-27T19:44:11.831Z,2.40
2017-06-27T19:46:39.369Z,2.60
2017-06-27T19:49:06.889Z,2.70
2017-06-27T19:51:34.449Z,2.40
2017-06-27T19:54:01.997Z,2.43
2017-06-27T19:56:29.565Z,2.13
2017-06-27T19:58:57.105Z,2.40
2017-06-27T20:01:24.669Z,2.53
2017-06-27T20:03:52.189Z,2.87
2017-06-27T20:06:19.762Z,2.80
2017-06-27T20:08:47.300Z,2.53
2017-06-27T20:11:14.847Z,2.30
2017-06-27T20:13:42.390Z,2.20
2017-06-27T20:16:09.956Z,2.53
2017-06-27T20:18:37.503Z,2.60
2017-06-27T20:21:05.073Z,2.23
2017-06-27T20:23:32.615Z,2.60
2017-06-27T20:26:00.155Z,2.60
2017-06-27T20:28:27.711Z,2.80
2017-06-27T20:30:55.257Z,2.43
2017-06-27T20:33:22.802Z,2.70
2017-06-27T20:35:50.421Z,2.30
2017-06-27T20:38:18.016Z,2.40
2017-06-27T20:40:45.580Z,2.30
2017-06-27T20:43:13.215Z,2.57
2017-06-27T20:45:40.758Z,2.47
2017-06-27T20:48:08.359Z,2.57
2017-06-27T20:50:35.925Z,2.90
2017-06-27T20:53:03.475Z,2.57
2017-06-27T20:55:30.993Z,2.60
2017-06-27T20:57:58.563Z,2.50
2017-06-27T21:00:26.088Z,2.60
2017-06-27T21:02:53.693Z,2.70
2017-06-27T21:05:21.256Z,2.53
2017-06-27T21:07:48.817Z,3.00
2017-06-27T21:10:16.345Z,2.80
2017-06-27T21:12:43.906Z,2.83
2017-06-27T21:15:11.453Z,3.23
2017-06-27T21:17:38.969Z,2.67
2017-06-27T21:20:06.513Z,2.63
2017-06-27T21:22:34.073Z,2.60
2017-06-27T21:25:01.632Z,2.83
2017-06-27T21:27:29.164Z,2.50
2017-06-27T21:29:56.718Z,3.13
2017-06-27T21:32:24.294Z,3.00
2017-06-27T21:34:51.854Z,3.20
2017-06-27T21:37:19.389Z,2.70
2017-06-27T21:39:46.944Z,2.90
2017-06-27T21:42:14.494Z,2.80
2017-06-27T21:44:42.113Z,2.80
2017-06-27T21:47:09.684Z,2.47
2017-06-27T21:49:37.211Z,2.67
2017-06-27T21:52:04.762Z,2.57
2017-06-27T21:54:32.297Z,2.63
2017-06-27T21:56:59.875Z,2.87
2017-06-27T21:59:27.413Z,2.67
2017-06-27T22:01:55.152Z,2.50
2017-06-27T22:04:22.674Z,2.87
2017-06-27T22:06:50.266Z,3.00
2017-06-27T22:09:17.801Z,2.63
2017-06-27T22:11:46.315Z,2.90
2017-06-27T22:14:13.863Z,2.90
2017-06-27T22:16:41.382Z,3.00
2017-06-27T22:19:08.981Z,3.30
2017-06-27T22:21:36.529Z,3.13
2017-06-27T22:24:04.093Z,2.93
2017-06-27T22:26:31.696Z,2.63
2017-06-27T22:28:59.326Z,2.93
2017-06-27T22:31:26.895Z,2.90
2017-06-27T22:33:54.458Z,2.60
2017-06-27T22:36:21.989Z,2.37
2017-06-27T22:38:49.572Z,2.70
2017-06-27T22:41:17.109Z,3.03
2017-06-27T22:43:44.669Z,2.80
2017-06-27T22:46:12.204Z,2.40
2017-06-27T22:48:39.733Z,2.60
2017-06-27T22:51:07.286Z,2.90
2017-06-27T22:53:34.829Z,2.67
2017-06-27T22:56:02.549Z,2.70
2017-06-27T22:58:30.078Z,2.80
2017-06-27T23:00:57.604Z,2.63
2017-06-27T23:03:25.177Z,2.37
2017-06-27T23:05:52.829Z,2.63
2017-06-27T23:08:20.349Z,2.70
2017-06-27T23:10:47.905Z,2.70
2017-06-27T23:13:15.493Z,2.80
2017-06-27T23:15:43.093Z,3.00
2017-06-27T23:18:10.707Z,2.43
2017-06-27T23:20:38.286Z,2.50
2017-06-27T23:23:05.881Z,2.90
2017-06-27T23:25:33.422Z,2.83
2017-06-27T23:28:00.992Z,2.43
2017-06-27T23:30:28.528Z,2.70
2017-06-27T23:32:56.065Z,2.57
2017-06-27T23:35:23.605Z,2.70
2017-06-27T23:37:51.231Z,2.20
2017-06-27T23:40:18.758Z,2.30
2017-06-27T23:42:46.303Z,2.90
2017-06-27T23:45:13.845Z,2.70
2017-06-27T23:47:41.376Z,2.30
2017-06-27T23:50:08.901Z,2.30
2017-06-27T23:52:36.449Z,2.40
2017-06-27T23:55:03.997Z,2.70
2017-06-27T23:57:31.698Z,2.47
2017-06-27T23:59:59.236Z,2.37
